createdAt,value
2023-05-19T00:02:06.071Z,95.00
2023-05-19T00:05:10.461Z,95.30
2023-05-19T00:08:19.937Z,95.70
2023-05-19T00:11:23.014Z,96.29
2023-05-19T00:14:25.831Z,96.31
2023-05-19T00:17:28.980Z,96.68
2023-05-19T00:20:31.748Z,96.73
2023-05-19T00:23:34.703Z,96.85
2023-05-19T00:26:37.280Z,96.81
2023-05-19T00:29:40.433Z,97.12
2023-05-19T00:32:43.985Z,97.07
2023-05-19T00:35:46.662Z,97.13
2023-05-19T00:38:51.175Z,97.43
2023-05-19T00:41:53.906Z,97.89
2023-05-19T00:44:56.345Z,98.01
2023-05-19T00:47:59.108Z,97.83
2023-05-19T00:51:04.747Z,97.93
2023-05-19T00:54:08.646Z,98.30
2023-05-19T00:57:12.579Z,98.24
2023-05-19T01:00:18.389Z,98.41
2023-05-19T01:03:21.487Z,98.84
2023-05-19T01:06:25.688Z,98.48
2023-05-19T01:09:28.482Z,99.24
2023-05-19T01:12:31.300Z,99.12
2023-05-19T01:15:45.982Z,99.59
2023-05-19T01:19:03.960Z,99.40
2023-05-19T01:22:33.693Z,100.00
2023-05-19T01:25:51.749Z,99.93
2023-05-19T01:29:17.322Z,100.00
2023-05-19T01:32:21.276Z,100.00
2023-05-19T01:35:26.277Z,100.00
2023-05-19T01:38:30.337Z,100.00
2023-05-19T01:41:34.659Z,100.00
2023-05-19T01:44:38.062Z,100.00
2023-05-19T01:47:43.887Z,100.00
2023-05-19T01:50:47.166Z,100.00
2023-05-19T01:53:51.399Z,100.00
2023-05-19T01:56:58.052Z,100.00
2023-05-19T02:00:22.368Z,100.00
2023-05-19T02:03:43.894Z,100.00
2023-05-19T02:07:09.821Z,100.00
2023-05-19T02:10:23.015Z,100.00
2023-05-19T02:13:31.686Z,100.00
2023-05-19T02:16:36.796Z,100.00
2023-05-19T02:19:42.231Z,100.00
2023-05-19T02:22:45.959Z,100.00
2023-05-19T02:25:49.249Z,100.00
2023-05-19T02:28:51.940Z,100.00
2023-05-19T02:31:54.615Z,100.00
2023-05-19T02:34:57.355Z,99.80
2023-05-19T02:37:59.898Z,99.62
2023-05-19T02:41:03.451Z,99.33
2023-05-19T02:44:06.578Z,99.40
2023-05-19T02:47:09.385Z,99.30
2023-05-19T02:50:11.864Z,99.11
2023-05-19T02:53:14.622Z,98.99
2023-05-19T02:56:17.090Z,99.00
2023-05-19T02:59:20.096Z,98.74
2023-05-19T03:02:22.479Z,98.54
2023-05-19T03:05:25.177Z,98.47
2023-05-19T03:08:28.249Z,98.46
2023-05-19T03:11:31.067Z,97.93
2023-05-19T03:14:34.818Z,98.02
2023-05-19T03:17:37.829Z,97.91
2023-05-19T03:20:42.441Z,97.60
2023-05-19T03:23:45.060Z,97.51
2023-05-19T03:26:47.956Z,97.45
2023-05-19T03:29:53.852Z,97.23
2023-05-19T03:32:56.952Z,97.10
2023-05-19T03:35:59.909Z,97.03
2023-05-19T03:39:07.030Z,96.81
2023-05-19T03:42:10.272Z,96.68
2023-05-19T03:45:12.959Z,96.54
2023-05-19T03:48:17.082Z,96.12
2023-05-19T03:51:21.904Z,95.88
2023-05-19T03:54:26.274Z,95.51
2023-05-19T03:57:29.492Z,94.98
2023-05-19T04:00:32.363Z,94.87
2023-05-19T04:03:37.250Z,94.31
2023-05-19T04:06:41.914Z,94.03
2023-05-19T04:09:45.222Z,93.58
2023-05-19T04:12:48.176Z,92.87
2023-05-19T04:15:54.386Z,92.81
2023-05-19T04:18:57.066Z,92.26
2023-05-19T04:22:00.303Z,92.17
2023-05-19T04:25:04.600Z,92.02
2023-05-19T04:28:07.761Z,91.69
2023-05-19T04:31:12.805Z,91.62
2023-05-19T04:34:15.985Z,91.47
2023-05-19T04:37:20.073Z,91.30
2023-05-19T04:40:25.925Z,91.12
2023-05-19T04:43:31.681Z,90.83
2023-05-19T04:46:36.181Z,90.41
2023-05-19T04:49:39.185Z,90.35
2023-05-19T04:52:42.678Z,90.00
2023-05-19T04:55:47.632Z,89.82
2023-05-19T04:58:51.088Z,89.36
2023-05-19T05:01:53.686Z,88.79
2023-05-19T05:04:56.894Z,88.24
2023-05-19T05:08:03.419Z,87.52
2023-05-19T05:11:08.012Z,86.02
2023-05-19T05:14:11.372Z,85.52
2023-05-19T05:17:17.400Z,84.33
2023-05-19T05:20:20.538Z,83.73
2023-05-19T05:23:23.945Z,83.15
2023-05-19T05:26:30.986Z,82.32
2023-05-19T05:29:35.327Z,81.51
2023-05-19T05:32:38.847Z,81.01
2023-05-19T05:35:43.782Z,81.21
2023-05-19T05:38:54.258Z,80.08
2023-05-19T05:41:58.090Z,79.91
2023-05-19T05:45:00.768Z,79.49
2023-05-19T05:48:07.473Z,79.17
2023-05-19T05:51:10.433Z,79.34
2023-05-19T05:54:14.498Z,79.55
2023-05-19T05:57:17.406Z,79.15
2023-05-19T06:00:22.379Z,79.58
2023-05-19T06:03:26.075Z,79.18
2023-05-19T06:06:29.073Z,76.15
2023-05-19T06:09:32.985Z,72.43
2023-05-19T06:12:42.138Z,69.60
2023-05-19T06:15:45.122Z,67.45
2023-05-19T06:18:49.426Z,66.07
2023-05-19T06:21:52.569Z,65.72
2023-05-19T06:24:55.252Z,64.73
2023-05-19T06:27:58.138Z,63.89
2023-05-19T06:31:03.950Z,64.05
2023-05-19T06:34:10.478Z,64.31
2023-05-19T06:37:19.666Z,65.48
2023-05-19T06:40:23.364Z,65.30
2023-05-19T06:43:28.920Z,65.65
2023-05-19T06:46:32.030Z,65.46
2023-05-19T06:49:34.551Z,65.42
2023-05-19T06:52:37.764Z,65.87
2023-05-19T06:55:50.694Z,66.19
2023-05-19T06:59:01.902Z,65.65
2023-05-19T07:02:05.137Z,64.36
2023-05-19T07:05:09.363Z,63.33
2023-05-19T07:08:12.092Z,63.57
2023-05-19T07:11:15.425Z,63.16
2023-05-19T07:14:27.304Z,62.88
2023-05-19T07:17:30.441Z,61.62
2023-05-19T07:20:34.543Z,61.88
2023-05-19T07:23:37.490Z,61.52
2023-05-19T07:26:40.653Z,60.29
2023-05-19T07:29:52.051Z,59.23
2023-05-19T07:32:56.315Z,57.18
2023-05-19T07:35:59.240Z,53.69
2023-05-19T07:39:01.905Z,53.92
2023-05-19T07:42:05.081Z,51.49
2023-05-19T07:45:08.062Z,49.19
2023-05-19T07:48:11.099Z,47.92
2023-05-19T07:51:13.996Z,50.94
2023-05-19T07:54:17.090Z,51.69
2023-05-19T07:57:23.000Z,54.13
2023-05-19T08:00:26.357Z,54.75
2023-05-19T08:03:30.949Z,55.03
2023-05-19T08:06:33.708Z,53.97
2023-05-19T08:09:36.626Z,53.67
2023-05-19T08:12:39.093Z,53.41
2023-05-19T08:15:42.851Z,53.89
2023-05-19T08:18:45.403Z,52.63
2023-05-19T08:21:48.433Z,52.85
2023-05-19T08:24:51.891Z,51.82
2023-05-19T08:27:54.669Z,50.34
2023-05-19T08:30:57.195Z,52.00
2023-05-19T08:33:59.919Z,51.29
2023-05-19T08:37:03.235Z,51.98
2023-05-19T08:40:07.735Z,50.60
2023-05-19T08:43:11.343Z,49.89
2023-05-19T08:46:16.422Z,47.45
2023-05-19T08:49:25.578Z,45.92
2023-05-19T08:52:28.448Z,47.64
2023-05-19T08:55:57.678Z,45.74
2023-05-19T08:59:04.705Z,45.72
2023-05-19T09:02:11.256Z,45.82
2023-05-19T09:05:16.020Z,48.23
2023-05-19T09:08:18.681Z,47.46
2023-05-19T09:11:22.784Z,46.43
2023-05-19T09:14:25.468Z,46.26
2023-05-19T09:17:28.197Z,45.42
2023-05-19T09:20:31.059Z,45.28
2023-05-19T09:23:34.220Z,43.88
2023-05-19T09:26:41.494Z,41.15
2023-05-19T09:29:44.331Z,41.14
2023-05-19T09:32:48.132Z,41.62
2023-05-19T09:35:54.311Z,40.10
2023-05-19T09:38:57.115Z,35.92
2023-05-19T09:42:04.895Z,33.54
2023-05-19T09:45:09.351Z,32.06
2023-05-19T09:48:12.779Z,30.55
2023-05-19T09:51:15.287Z,28.48
2023-05-19T09:54:20.531Z,29.72
2023-05-19T09:57:29.832Z,31.04
2023-05-19T10:00:32.939Z,30.66
2023-05-19T10:03:36.938Z,30.55
2023-05-19T10:06:40.882Z,30.00
2023-05-19T10:09:44.936Z,29.12
2023-05-19T10:12:48.969Z,28.73
2023-05-19T10:19:01.234Z,29.01
2023-05-19T10:22:04.392Z,28.34
2023-05-19T10:25:08.605Z,29.48
2023-05-19T10:28:15.182Z,28.47
2023-05-19T10:31:21.602Z,26.99
2023-05-19T10:34:24.258Z,25.95
2023-05-19T10:37:41.876Z,26.73
2023-05-19T10:41:07.632Z,27.58
2023-05-19T10:44:23.519Z,27.34
2023-05-19T10:47:26.840Z,25.51
2023-05-19T10:50:37.965Z,26.58
2023-05-19T10:53:46.425Z,26.60
2023-05-19T10:56:49.086Z,26.44
2023-05-19T10:59:51.802Z,27.54
2023-05-19T11:02:57.621Z,27.36
2023-05-19T11:06:28.546Z,25.97
2023-05-19T11:09:39.864Z,27.47
2023-05-19T11:12:46.026Z,25.07
2023-05-19T11:15:52.003Z,25.22
2023-05-19T11:18:56.466Z,24.93
2023-05-19T11:22:12.561Z,25.48
2023-05-19T11:25:38.316Z,24.74
2023-05-19T11:28:44.474Z,24.53
2023-05-19T11:31:48.798Z,25.52
2023-05-19T11:34:51.586Z,25.82
2023-05-19T11:37:57.669Z,24.94
2023-05-19T11:41:00.824Z,24.39
2023-05-19T11:44:03.717Z,23.86
2023-05-19T11:47:06.776Z,25.89
2023-05-19T11:50:11.712Z,24.42
2023-05-19T11:53:15.461Z,25.44
2023-05-19T11:56:18.348Z,27.25
2023-05-19T11:59:30.449Z,26.43
2023-05-19T12:02:36.427Z,25.11
2023-05-19T12:05:48.396Z,24.84
2023-05-19T12:08:52.253Z,25.84
2023-05-19T12:11:55.570Z,26.44
2023-05-19T12:14:58.185Z,26.25
2023-05-19T12:18:02.577Z,25.11
2023-05-19T12:21:06.023Z,22.80
2023-05-19T12:24:09.273Z,23.01
2023-05-19T12:27:20.448Z,23.31
2023-05-19T12:30:30.088Z,23.38
2023-05-19T12:33:35.477Z,25.40
2023-05-19T12:36:38.830Z,24.82
2023-05-19T12:39:42.973Z,26.15
2023-05-19T12:42:46.608Z,24.58
2023-05-19T12:45:49.676Z,23.88
2023-05-19T12:48:52.560Z,24.99
2023-05-19T12:51:55.030Z,25.01
2023-05-19T12:55:07.958Z,24.82
2023-05-19T12:58:12.010Z,23.41
2023-05-19T13:01:19.853Z,25.85
2023-05-19T13:04:22.460Z,26.37
2023-05-19T13:07:28.149Z,24.54
2023-05-19T13:10:32.112Z,24.85
2023-05-19T13:13:35.044Z,24.35
2023-05-19T13:16:37.543Z,24.20
2023-05-19T13:19:40.673Z,25.24
2023-05-19T13:22:43.510Z,26.24
2023-05-19T13:25:46.809Z,24.94
2023-05-19T13:28:52.276Z,24.34
2023-05-19T13:31:55.568Z,24.33
2023-05-19T13:34:58.709Z,25.31
2023-05-19T13:38:11.204Z,28.56
2023-05-19T13:41:15.935Z,30.76
2023-05-19T13:44:19.739Z,30.15
2023-05-19T13:47:23.865Z,32.13
2023-05-19T13:50:26.773Z,33.12
2023-05-19T13:53:31.212Z,36.13
2023-05-19T13:56:34.019Z,37.66
2023-05-19T13:59:43.117Z,38.48
2023-05-19T14:02:58.372Z,40.28
2023-05-19T14:06:01.235Z,40.30
2023-05-19T14:09:04.170Z,41.11
2023-05-19T14:12:07.330Z,42.51
2023-05-19T14:15:11.456Z,47.30
2023-05-19T14:18:14.609Z,51.57
2023-05-19T14:21:17.035Z,53.17
2023-05-19T14:24:20.221Z,53.95
2023-05-19T14:27:23.052Z,54.88
2023-05-19T14:30:25.879Z,55.38
2023-05-19T14:33:29.725Z,55.34
2023-05-19T14:36:35.598Z,54.76
2023-05-19T14:39:45.630Z,54.29
2023-05-19T14:42:50.658Z,56.08
2023-05-19T14:45:53.223Z,58.36
2023-05-19T14:48:56.094Z,58.72
2023-05-19T14:51:58.719Z,59.99
2023-05-19T14:55:01.493Z,60.80
2023-05-19T14:58:07.894Z,62.75
2023-05-19T15:01:19.054Z,68.30
2023-05-19T15:04:21.776Z,74.96
2023-05-19T15:07:24.745Z,75.62
2023-05-19T15:10:27.113Z,73.58
2023-05-19T15:13:32.697Z,73.58
2023-05-19T15:16:38.026Z,73.65
2023-05-19T15:19:42.819Z,73.46
2023-05-19T15:22:45.342Z,72.21
2023-05-19T15:25:48.129Z,72.27
2023-05-19T15:31:56.191Z,73.01
2023-05-19T15:34:58.661Z,72.03
2023-05-19T15:38:06.163Z,72.06
2023-05-19T15:41:09.149Z,71.69
2023-05-19T15:44:11.884Z,72.79
2023-05-19T15:47:14.360Z,72.68
2023-05-19T15:50:17.149Z,73.48
2023-05-19T15:53:20.341Z,74.01
2023-05-19T15:56:23.008Z,74.22
2023-05-19T15:59:25.510Z,74.19
2023-05-19T16:02:32.306Z,74.07
2023-05-19T16:05:35.181Z,74.30
2023-05-19T16:08:38.091Z,74.36
2023-05-19T16:11:40.876Z,74.59
2023-05-19T16:14:43.257Z,75.65
2023-05-19T16:17:48.487Z,77.66
2023-05-19T16:20:51.445Z,76.97
2023-05-19T16:23:54.269Z,77.99
2023-05-19T16:26:56.700Z,77.95
2023-05-19T16:30:03.376Z,76.23
2023-05-19T16:33:09.465Z,75.02
2023-05-19T16:36:12.552Z,74.13
2023-05-19T16:39:15.435Z,71.43
2023-05-19T16:42:18.188Z,69.49
2023-05-19T16:45:20.703Z,68.26
2023-05-19T16:48:23.334Z,67.44
2023-05-19T16:51:25.871Z,66.13
2023-05-19T16:54:28.937Z,64.87
2023-05-19T16:57:31.372Z,64.15
2023-05-19T17:00:34.597Z,64.31
2023-05-19T17:03:37.442Z,64.29
2023-05-19T17:06:40.478Z,63.95
2023-05-19T17:09:46.376Z,64.46
2023-05-19T17:12:49.144Z,64.83
2023-05-19T17:15:52.765Z,65.36
2023-05-19T17:18:56.104Z,65.95
2023-05-19T17:21:58.554Z,66.57
2023-05-19T17:25:01.442Z,66.81
2023-05-19T17:28:03.969Z,67.46
2023-05-19T17:31:13.835Z,68.39
2023-05-19T17:34:16.306Z,69.88
2023-05-19T17:37:23.357Z,70.61
2023-05-19T17:40:25.998Z,71.31
2023-05-19T17:43:29.074Z,71.67
2023-05-19T17:46:34.733Z,72.09
2023-05-19T17:49:37.595Z,72.73
2023-05-19T17:52:45.018Z,73.45
2023-05-19T17:56:00.956Z,74.09
2023-05-19T17:59:03.597Z,75.33
2023-05-19T18:02:07.506Z,75.54
2023-05-19T18:05:11.003Z,75.95
2023-05-19T18:08:13.795Z,76.70
2023-05-19T18:11:20.074Z,77.03
2023-05-19T18:14:25.825Z,77.57
2023-05-19T18:17:29.557Z,77.84
2023-05-19T18:20:34.014Z,77.92
2023-05-19T18:23:37.040Z,78.04
2023-05-19T18:26:42.065Z,78.42
2023-05-19T18:29:47.506Z,78.33
2023-05-19T18:32:50.040Z,78.25
2023-05-19T18:35:52.788Z,78.58
2023-05-19T18:38:58.478Z,79.20
2023-05-19T18:42:03.348Z,79.56
2023-05-19T18:45:06.581Z,79.80
2023-05-19T18:48:09.459Z,81.13
2023-05-19T18:51:14.329Z,81.83
2023-05-19T18:54:17.153Z,81.40
2023-05-19T18:57:19.645Z,82.12
2023-05-19T19:00:26.028Z,82.67
2023-05-19T19:03:28.790Z,83.26
2023-05-19T19:06:31.876Z,83.53
2023-05-19T19:09:34.460Z,83.73
2023-05-19T19:12:38.937Z,84.26
2023-05-19T19:15:41.416Z,84.54
2023-05-19T19:18:44.233Z,84.78
2023-05-19T19:21:47.107Z,85.21
2023-05-19T19:24:49.811Z,85.46
2023-05-19T19:27:52.151Z,85.70
2023-05-19T19:30:54.799Z,85.65
2023-05-19T19:34:00.299Z,86.49
2023-05-19T19:37:03.901Z,86.42
2023-05-19T19:40:08.734Z,86.98
2023-05-19T19:43:11.725Z,86.87
2023-05-19T19:46:14.543Z,87.08
2023-05-19T19:49:17.448Z,87.18
2023-05-19T19:52:20.160Z,87.29
2023-05-19T19:55:25.153Z,87.55
2023-05-19T19:58:29.763Z,87.57
2023-05-19T20:01:33.761Z,87.53
2023-05-19T20:04:36.579Z,87.38
2023-05-19T20:07:39.014Z,87.51
2023-05-19T20:10:41.649Z,87.48
2023-05-19T20:13:44.087Z,87.38
2023-05-19T20:16:47.209Z,87.56
2023-05-19T20:19:49.657Z,87.65
2023-05-19T20:22:54.298Z,87.71
2023-05-19T20:26:10.906Z,87.66
2023-05-19T20:29:16.900Z,87.45
2023-05-19T20:32:19.365Z,87.34
2023-05-19T20:35:22.710Z,87.43
2023-05-19T20:38:25.381Z,87.58
2023-05-19T20:41:28.208Z,87.64
2023-05-19T20:44:30.859Z,87.87
2023-05-19T20:47:33.809Z,88.30
2023-05-19T20:50:39.447Z,88.82
2023-05-19T20:53:42.252Z,89.02
2023-05-19T20:56:44.728Z,89.16
2023-05-19T20:59:47.438Z,89.46
2023-05-19T21:02:49.862Z,89.89
2023-05-19T21:05:59.290Z,90.10
2023-05-19T21:09:04.943Z,90.70
2023-05-19T21:12:07.758Z,90.49
2023-05-19T21:15:10.617Z,90.54
2023-05-19T21:18:13.499Z,90.23
2023-05-19T21:21:16.020Z,90.23
2023-05-19T21:24:18.821Z,90.28
2023-05-19T21:27:21.805Z,90.35
2023-05-19T21:30:25.341Z,90.25
2023-05-19T21:33:27.869Z,90.28
2023-05-19T21:36:30.685Z,90.42
2023-05-19T21:39:33.123Z,90.80
2023-05-19T21:42:35.913Z,90.79
2023-05-19T21:45:38.716Z,90.61
2023-05-19T21:48:41.444Z,90.54
2023-05-19T21:51:43.833Z,90.44
2023-05-19T21:54:48.727Z,90.18
2023-05-19T21:57:54.049Z,90.45
2023-05-19T22:00:56.822Z,90.32
2023-05-19T22:03:59.865Z,90.21
2023-05-19T22:07:02.608Z,90.85
2023-05-19T22:10:05.864Z,90.71
2023-05-19T22:13:08.667Z,90.63
2023-05-19T22:16:11.614Z,90.80
2023-05-19T22:19:14.687Z,91.21
2023-05-19T22:22:17.411Z,92.07
2023-05-19T22:25:19.874Z,91.89
2023-05-19T22:28:22.516Z,92.08
2023-05-19T22:31:28.940Z,92.12
2023-05-19T22:34:31.673Z,92.42
2023-05-19T22:37:34.609Z,92.34
2023-05-19T22:40:37.459Z,92.55
2023-05-19T22:43:39.915Z,92.92
2023-05-19T22:46:44.529Z,93.17
2023-05-19T22:49:47.310Z,92.99
2023-05-19T22:52:50.232Z,93.28
2023-05-19T22:55:53.093Z,93.47
2023-05-19T22:58:56.249Z,94.08
2023-05-19T23:01:58.692Z,93.56
2023-05-19T23:05:01.378Z,94.53
2023-05-19T23:08:03.879Z,94.70
2023-05-19T23:11:07.273Z,94.88
2023-05-19T23:14:09.662Z,94.86
2023-05-19T23:17:12.340Z,94.99
2023-05-19T23:20:14.871Z,94.95
2023-05-19T23:23:17.691Z,94.79
2023-05-19T23:26:20.155Z,95.25
2023-05-19T23:29:23.293Z,95.47
2023-05-19T23:32:25.995Z,95.18
2023-05-19T23:35:28.971Z,95.07
2023-05-19T23:38:31.384Z,95.57
2023-05-19T23:41:34.006Z,95.82
2023-05-19T23:44:36.434Z,95.58
2023-05-19T23:47:39.332Z,95.93
2023-05-19T23:50:41.779Z,95.88
2023-05-19T23:53:46.967Z,95.73
2023-05-19T23:56:49.379Z,95.65
2023-05-19T23:59:52.688Z,95.45
